Time,TemperatureF,DewpointF,PressureIn,WindDirection,WindDirectionDegrees,WindSpeedMPH,WindSpeedGustMPH,Humidity,HourlyPrecipIn,Conditions,Clouds,dailyrainin,SolarRadiationWatts/m^2,SoftwareType,DateUTC
2013-02-20 00:11:00,50.0,28.0,-100.00,South,183,9.0,15.0,43,-99.99,,,-99.99,0.000000,,2013-02-20 08:11:00,
2013-02-20 00:21:00,49.0,27.0,-100.00,South,188,7.0,16.0,41,-99.99,,,-99.99,0.000000,,2013-02-20 08:21:00,
2013-02-20 00:31:00,49.0,27.0,-100.00,South,188,7.0,16.0,41,-99.99,,,-99.99,0.000000,,2013-02-20 08:31:00,
2013-02-20 00:41:00,49.0,25.0,-100.00,South,188,9.0,16.0,39,-99.99,,,-99.99,0.000000,,2013-02-20 08:41:00,
2013-02-20 00:52:00,49.0,26.0,-100.00,South,185,8.0,16.0,40,-99.99,,,-99.99,0.000000,,2013-02-20 08:52:00,
2013-02-20 01:01:00,49.0,26.0,-100.00,South,181,8.0,14.0,40,-99.99,,,-99.99,0.000000,,2013-02-20 09:01:00,
2013-02-20 01:11:00,49.0,26.0,-100.00,South,187,8.0,14.0,40,-99.99,,,-99.99,0.000000,,2013-02-20 09:11:00,
2013-02-20 01:21:00,49.0,26.0,-100.00,South,187,8.0,14.0,40,-99.99,,,-99.99,0.000000,,2013-02-20 09:21:00,
2013-02-20 01:31:00,49.0,26.0,-100.00,South,187,7.0,17.0,40,-99.99,,,-99.99,0.000000,,2013-02-20 09:31:00,
2013-02-20 01:41:00,49.0,26.0,-100.00,South,180,9.0,17.0,41,-99.99,,,-99.99,0.000000,,2013-02-20 09:41:00,
2013-02-20 01:51:00,48.0,27.0,-100.00,South,183,10.0,18.0,44,-99.99,,,-99.99,0.000000,,2013-02-20 09:51:00,
2013-02-20 02:01:00,48.0,28.0,-100.00,South,183,8.0,14.0,45,-99.99,,,-99.99,0.000000,,2013-02-20 10:01:00,
2013-02-20 02:12:00,48.0,28.0,-100.00,South,183,8.0,18.0,46,-99.99,,,-99.99,0.000000,,2013-02-20 10:12:00,
2013-02-20 02:21:00,48.0,28.0,-100.00,South,186,8.0,15.0,46,-99.99,,,-99.99,0.000000,,2013-02-20 10:21:00,
2013-02-20 02:31:00,48.0,28.0,-100.00,South,185,7.0,15.0,46,-99.99,,,-99.99,0.000000,,2013-02-20 10:31:00,
2013-02-20 02:41:00,48.0,28.0,-100.00,South,186,6.0,12.0,46,-99.99,,,-99.99,0.000000,,2013-02-20 10:41:00,
2013-02-20 02:51:00,47.0,28.0,-100.00,South,184,6.0,11.0,47,-99.99,,,-99.99,0.000000,,2013-02-20 10:51:00,
2013-02-20 03:02:00,47.0,28.0,-100.00,South,181,7.0,12.0,46,-99.99,,,-99.99,0.000000,,2013-02-20 11:02:00,
2013-02-20 03:11:00,48.0,27.0,-100.00,South,183,5.0,10.0,45,-99.99,,,-99.99,0.000000,,2013-02-20 11:11:00,
2013-02-20 03:21:00,48.0,27.0,-100.00,South,179,5.0,9.0,44,-99.99,,,-99.99,0.000000,,2013-02-20 11:21:00,
2013-02-20 03:32:00,47.0,27.0,-100.00,South,178,7.0,13.0,44,-99.99,,,-99.99,0.000000,,2013-02-20 11:32:00,
2013-02-20 03:41:00,47.0,27.0,-100.00,South,188,7.0,13.0,45,-99.99,,,-99.99,0.000000,,2013-02-20 11:41:00,
2013-02-20 03:52:00,47.0,27.0,-100.00,South,185,7.0,12.0,45,-99.99,,,-99.99,0.000000,,2013-02-20 11:52:00,
2013-02-20 04:01:00,47.0,27.0,-100.00,SSW,194,6.0,12.0,46,-99.99,,,-99.99,0.000000,,2013-02-20 12:01:00,
2013-02-20 04:12:00,47.0,28.0,-100.00,South,180,8.0,14.0,47,-99.99,,,-99.99,0.000000,,2013-02-20 12:12:00,
2013-02-20 04:21:00,46.0,27.0,-100.00,South,179,8.0,14.0,47,-99.99,,,-99.99,0.000000,,2013-02-20 12:21:00,
2013-02-20 04:31:00,46.0,28.0,-100.00,South,184,7.0,13.0,48,-99.99,,,-99.99,0.000000,,2013-02-20 12:31:00,
2013-02-20 04:42:00,46.0,27.0,-100.00,South,180,8.0,15.0,48,-99.99,,,-99.99,0.000000,,2013-02-20 12:42:00,
2013-02-20 04:52:00,46.0,28.0,-100.00,South,178,7.0,12.0,49,-99.99,,,-99.99,0.000000,,2013-02-20 12:52:00,
2013-02-20 05:01:00,46.0,27.0,-100.00,South,176,6.0,10.0,48,-99.99,,,-99.99,0.000000,,2013-02-20 13:01:00,
2013-02-20 05:11:00,46.0,27.0,-100.00,South,171,6.0,13.0,48,-99.99,,,-99.99,0.000000,,2013-02-20 13:11:00,
2013-02-20 05:22:00,45.0,28.0,-100.00,South,172,3.0,8.0,51,-99.99,,,-99.99,0.000000,,2013-02-20 13:22:00,
2013-02-20 05:31:00,45.0,28.0,-100.00,South,172,3.0,8.0,51,-99.99,,,-99.99,0.000000,,2013-02-20 13:31:00,
2013-02-20 05:42:00,45.0,28.0,-100.00,South,178,3.0,10.0,51,-99.99,,,-99.99,0.000000,,2013-02-20 13:42:00,
2013-02-20 05:51:00,45.0,28.0,-100.00,South,178,3.0,10.0,51,-99.99,,,-99.99,0.000000,,2013-02-20 13:51:00,
2013-02-20 06:01:00,45.0,29.0,-100.00,South,174,2.0,6.0,52,-99.99,,,-99.99,0.000000,,2013-02-20 14:01:00,
2013-02-20 06:11:00,45.0,29.0,-100.00,South,170,1.0,5.0,52,-99.99,,,-99.99,0.000000,,2013-02-20 14:11:00,
2013-02-20 06:21:00,45.0,28.0,-100.00,South,170,2.0,8.0,52,-99.99,,,-99.99,0.000000,,2013-02-20 14:21:00,
2013-02-20 06:32:00,45.0,28.0,-100.00,North,353,1.0,6.0,52,-99.99,,,-99.99,0.000000,,2013-02-20 14:32:00,
2013-02-20 06:42:00,45.0,28.0,-100.00,NE,52,2.0,4.0,52,-99.99,,,-99.99,0.000000,,2013-02-20 14:42:00,
2013-02-20 06:52:00,45.0,28.0,-100.00,NE,52,2.0,4.0,52,-99.99,,,-99.99,0.000000,,2013-02-20 14:52:00,
2013-02-20 07:01:00,45.0,28.0,-100.00,NE,52,3.0,6.0,52,-99.99,,,-99.99,4.000000,,2013-02-20 15:01:00,
2013-02-20 07:11:00,45.0,28.0,-100.00,NE,52,3.0,6.0,52,-99.99,,,-99.99,4.000000,,2013-02-20 15:11:00,
2013-02-20 07:22:00,44.0,32.0,-100.00,NE,53,2.0,4.0,61,-99.99,,,-99.99,19.000000,,2013-02-20 15:22:00,
2013-02-20 07:32:00,44.0,32.0,-100.00,NE,53,2.0,4.0,61,-99.99,,,-99.99,19.000000,,2013-02-20 15:32:00,
2013-02-20 07:41:00,44.0,34.0,-100.00,NE,49,2.0,5.0,66,-99.99,,,-99.99,35.000000,,2013-02-20 15:41:00,
2013-02-20 07:51:00,45.0,34.0,-100.00,NE,53,2.0,3.0,66,-99.99,,,-99.99,41.000000,,2013-02-20 15:51:00,
2013-02-20 08:01:00,45.0,34.0,-100.00,NE,53,2.0,3.0,66,-99.99,,,-99.99,41.000000,,2013-02-20 16:01:00,
2013-02-20 08:11:00,45.0,35.0,-100.00,NE,51,2.0,4.0,67,-99.99,,,-99.99,54.000000,,2013-02-20 16:11:00,
2013-02-20 08:21:00,45.0,35.0,-100.00,NE,51,2.0,4.0,67,-99.99,,,-99.99,54.000000,,2013-02-20 16:21:00,
2013-02-20 08:32:00,45.0,35.0,-100.00,NE,50,1.0,3.0,67,-99.99,,,-99.99,40.000000,,2013-02-20 16:32:00,
2013-02-20 08:41:00,45.0,36.0,-100.00,NE,52,2.0,5.0,68,-99.99,,,-99.99,33.000000,,2013-02-20 16:41:00,
2013-02-20 08:51:00,45.0,36.0,-100.00,NE,50,1.0,3.0,71,-99.99,,,-99.99,56.000000,,2013-02-20 16:51:00,
2013-02-20 09:01:00,45.0,37.0,-100.00,ENE,64,0.0,2.0,72,-99.99,,,-99.99,142.000000,,2013-02-20 17:01:00,
2013-02-20 09:11:00,46.0,37.0,-100.00,NE,49,0.0,3.0,72,-99.99,,,-99.99,116.000000,,2013-02-20 17:11:00,
2013-02-20 09:21:00,46.0,36.0,-100.00,NE,40,1.0,2.0,70,-99.99,,,-99.99,102.000000,,2013-02-20 17:21:00,
2013-02-20 09:32:00,46.0,36.0,-100.00,NE,40,1.0,2.0,70,-99.99,,,-99.99,102.000000,,2013-02-20 17:32:00,
2013-02-20 09:41:00,46.0,37.0,-100.00,NE,39,1.0,3.0,70,-99.99,,,-99.99,113.000000,,2013-02-20 17:41:00,
2013-02-20 09:52:00,46.0,37.0,-100.00,NE,39,1.0,3.0,70,-99.99,,,-99.99,113.000000,,2013-02-20 17:52:00,
2013-02-20 10:02:00,46.0,37.0,-100.00,NE,48,1.0,4.0,70,-99.99,,,-99.99,119.000000,,2013-02-20 18:02:00,
2013-02-20 10:11:00,46.0,37.0,-100.00,NE,39,1.0,3.0,70,-99.99,,,-99.99,136.000000,,2013-02-20 18:11:00,
2013-02-20 10:21:00,46.0,37.0,-100.00,NNE,14,1.0,4.0,70,-99.99,,,-99.99,100.000000,,2013-02-20 18:21:00,
2013-02-20 10:31:00,46.0,37.0,-100.00,NNE,14,1.0,4.0,70,-99.99,,,-99.99,100.000000,,2013-02-20 18:31:00,
2013-02-20 10:41:00,47.0,37.0,-100.00,NE,42,1.0,4.0,67,-99.99,,,-99.99,259.000000,,2013-02-20 18:41:00,
2013-02-20 10:51:00,47.0,36.0,-100.00,South,191,1.0,4.0,65,-99.99,,,-99.99,296.000000,,2013-02-20 18:51:00,
2013-02-20 11:01:00,47.0,36.0,-100.00,South,191,1.0,4.0,65,-99.99,,,-99.99,296.000000,,2013-02-20 19:01:00,
2013-02-20 11:11:00,48.0,36.0,-100.00,SSE,158,1.0,4.0,64,-99.99,,,-99.99,309.000000,,2013-02-20 19:11:00,
2013-02-20 11:21:00,48.0,36.0,-100.00,NE,42,2.0,4.0,63,-99.99,,,-99.99,323.000000,,2013-02-20 19:21:00,
2013-02-20 11:31:00,49.0,36.0,-100.00,South,182,2.0,6.0,60,-99.99,,,-99.99,608.000000,,2013-02-20 19:31:00,
2013-02-20 11:41:00,50.0,36.0,-100.00,NE,55,2.0,4.0,57,-99.99,,,-99.99,789.000000,,2013-02-20 19:41:00,
2013-02-20 11:51:00,51.0,36.0,-100.00,NE,43,2.0,5.0,55,-99.99,,,-99.99,437.000000,,2013-02-20 19:51:00,
2013-02-20 12:01:00,50.0,36.0,-100.00,South,189,3.0,7.0,57,-99.99,,,-99.99,677.000000,,2013-02-20 20:01:00,
2013-02-20 12:11:00,52.0,35.0,-100.00,NE,38,2.0,6.0,52,-99.99,,,-99.99,540.000000,,2013-02-20 20:11:00,
2013-02-20 12:21:00,53.0,35.0,-100.00,NNE,27,2.0,5.0,51,-99.99,,,-99.99,500.000000,,2013-02-20 20:21:00,
2013-02-20 12:31:00,53.0,35.0,-100.00,NNE,27,2.0,5.0,51,-99.99,,,-99.99,500.000000,,2013-02-20 20:31:00,
2013-02-20 12:41:00,52.0,35.0,-100.00,NE,44,3.0,7.0,52,-99.99,,,-99.99,714.000000,,2013-02-20 20:41:00,
2013-02-20 12:50:00,54.0,34.0,-100.00,South,176,1.0,6.0,47,-99.99,,,-99.99,347.000000,,2013-02-20 20:50:00,
2013-02-20 12:51:00,52.0,35.0,-100.00,NE,44,3.0,7.0,52,-99.99,,,-99.99,714.000000,,2013-02-20 20:51:00,
2013-02-20 13:01:00,54.0,34.0,-100.00,NNE,13,2.0,6.0,46,-99.99,,,-99.99,769.000000,,2013-02-20 21:01:00,
2013-02-20 13:11:00,54.0,33.0,-100.00,SE,145,3.0,8.0,45,-99.99,,,-99.99,747.000000,,2013-02-20 21:11:00,
2013-02-20 13:21:00,54.0,35.0,-100.00,South,181,4.0,9.0,48,-99.99,,,-99.99,603.000000,,2013-02-20 21:21:00,
2013-02-20 13:31:00,54.0,34.0,-100.00,South,176,1.0,6.0,47,-99.99,,,-99.99,347.000000,,2013-02-20 21:31:00,
2013-02-20 13:41:00,54.0,34.0,-100.00,South,176,1.0,6.0,47,-99.99,,,-99.99,347.000000,,2013-02-20 21:41:00,
2013-02-20 14:01:00,54.0,33.0,-100.00,South,182,3.0,8.0,46,-99.99,,,-99.99,445.000000,,2013-02-20 22:01:00,
2013-02-20 14:11:00,54.0,34.0,-100.00,NNE,28,1.0,3.0,45,-99.99,,,-99.99,238.000000,,2013-02-20 22:11:00,
2013-02-20 14:20:00,54.0,30.0,-100.00,South,184,4.0,10.0,39,-99.99,,,-99.99,190.000000,,2013-02-20 22:20:00,
2013-02-20 14:21:00,54.0,33.0,-100.00,SSW,202,2.0,8.0,44,-99.99,,,-99.99,222.000000,,2013-02-20 22:21:00,
2013-02-20 14:31:00,54.0,33.0,-100.00,SSW,202,2.0,8.0,44,-99.99,,,-99.99,222.000000,,2013-02-20 22:31:00,
2013-02-20 14:42:00,54.0,31.0,-100.00,South,178,2.0,5.0,41,-99.99,,,-99.99,222.000000,,2013-02-20 22:42:00,
2013-02-20 14:51:00,54.0,31.0,-100.00,South,178,2.0,5.0,41,-99.99,,,-99.99,222.000000,,2013-02-20 22:51:00,
2013-02-20 15:01:00,54.0,30.0,-100.00,South,184,4.0,10.0,39,-99.99,,,-99.99,190.000000,,2013-02-20 23:01:00,
2013-02-20 15:12:00,54.0,30.0,-100.00,South,184,4.0,10.0,39,-99.99,,,-99.99,190.000000,,2013-02-20 23:12:00,
2013-02-20 15:31:00,55.0,27.0,-100.00,SSE,162,3.0,7.0,34,-99.99,,,-99.99,226.000000,,2013-02-20 23:31:00,
2013-02-20 15:42:00,56.0,27.0,-100.00,ESE,103,2.0,4.0,33,-99.99,,,-99.99,166.000000,,2013-02-20 23:42:00,
2013-02-20 15:52:00,56.0,27.0,-100.00,SSE,151,1.0,5.0,33,-99.99,,,-99.99,110.000000,,2013-02-20 23:52:00,
2013-02-20 16:02:00,55.0,27.0,-100.00,South,178,1.0,4.0,33,-99.99,,,-99.99,100.000000,,2013-02-21 00:02:00,
2013-02-20 16:11:00,55.0,27.0,-100.00,South,178,1.0,4.0,33,-99.99,,,-99.99,100.000000,,2013-02-21 00:11:00,
2013-02-20 16:21:00,55.0,27.0,-100.00,South,178,1.0,4.0,33,-99.99,,,-99.99,100.000000,,2013-02-21 00:21:00,
2013-02-20 16:32:00,56.0,26.0,-100.00,SSW,208,1.0,4.0,32,-99.99,,,-99.99,95.000000,,2013-02-21 00:32:00,
2013-02-20 16:42:00,56.0,26.0,-100.00,West,269,2.0,5.0,31,-99.99,,,-99.99,117.000000,,2013-02-21 00:42:00,
2013-02-20 16:52:00,56.0,27.0,-100.00,South,187,3.0,6.0,32,-99.99,,,-99.99,148.000000,,2013-02-21 00:52:00,
2013-02-20 17:01:00,56.0,27.0,-100.00,NNE,16,3.0,6.0,32,-99.99,,,-99.99,120.000000,,2013-02-21 01:01:00,
2013-02-20 17:11:00,58.0,26.0,-100.00,NE,42,2.0,5.0,30,-99.99,,,-99.99,159.000000,,2013-02-21 01:11:00,
2013-02-20 17:21:00,58.0,26.0,-100.00,South,186,2.0,5.0,30,-99.99,,,-99.99,72.000000,,2013-02-21 01:21:00,
2013-02-20 17:32:00,56.0,26.0,-100.00,SSE,164,2.0,5.0,32,-99.99,,,-99.99,51.000000,,2013-02-21 01:32:00,
2013-02-20 17:41:00,56.0,26.0,-100.00,SSW,192,2.0,5.0,32,-99.99,,,-99.99,39.000000,,2013-02-21 01:41:00,
2013-02-20 17:50:00,53.0,34.0,-100.00,NE,54,2.0,5.0,48,-99.99,,,-99.99,0.000000,,2013-02-21 01:50:00,
2013-02-20 17:51:00,56.0,26.0,-100.00,SSW,192,2.0,5.0,32,-99.99,,,-99.99,39.000000,,2013-02-21 01:51:00,
2013-02-20 18:01:00,56.0,26.0,-100.00,East,93,1.0,7.0,32,-99.99,,,-99.99,10.000000,,2013-02-21 02:01:00,
2013-02-20 18:11:00,55.0,33.0,-100.00,NE,50,3.0,6.0,44,-99.99,,,-99.99,4.000000,,2013-02-21 02:11:00,
2013-02-20 18:21:00,54.0,34.0,-100.00,NE,53,2.0,6.0,47,-99.99,,,-99.99,3.000000,,2013-02-21 02:21:00,
2013-02-20 18:32:00,53.0,34.0,-100.00,NE,54,2.0,5.0,48,-99.99,,,-99.99,0.000000,,2013-02-21 02:32:00,
2013-02-20 18:42:00,53.0,34.0,-100.00,NE,54,2.0,5.0,48,-99.99,,,-99.99,0.000000,,2013-02-21 02:42:00,
2013-02-20 19:01:00,52.0,35.0,-100.00,NE,50,2.0,6.0,53,-99.99,,,-99.99,0.000000,,2013-02-21 03:01:00,
2013-02-20 19:11:00,52.0,35.0,-100.00,NE,50,2.0,6.0,53,-99.99,,,-99.99,0.000000,,2013-02-21 03:11:00,
2013-02-20 19:21:00,51.0,35.0,-100.00,NE,54,2.0,4.0,54,-99.99,,,-99.99,0.000000,,2013-02-21 03:21:00,
2013-02-20 19:31:00,50.0,35.0,-100.00,NE,50,1.0,4.0,56,-99.99,,,-99.99,0.000000,,2013-02-21 03:31:00,
2013-02-20 19:41:00,50.0,35.0,-100.00,NE,52,1.0,4.0,56,-99.99,,,-99.99,0.000000,,2013-02-21 03:41:00,
2013-02-20 19:51:00,50.0,35.0,-100.00,ENE,59,2.0,5.0,57,-99.99,,,-99.99,0.000000,,2013-02-21 03:51:00,
2013-02-20 20:01:00,49.0,35.0,-100.00,NE,52,3.0,7.0,57,-99.99,,,-99.99,0.000000,,2013-02-21 04:01:00,
2013-02-20 20:11:00,49.0,35.0,-100.00,ENE,59,2.0,5.0,58,-99.99,,,-99.99,0.000000,,2013-02-21 04:11:00,
2013-02-20 20:21:00,49.0,35.0,-100.00,ENE,59,2.0,5.0,58,-99.99,,,-99.99,0.000000,,2013-02-21 04:21:00,
2013-02-20 20:31:00,49.0,35.0,-100.00,NNE,24,3.0,5.0,59,-99.99,,,-99.99,0.000000,,2013-02-21 04:31:00,
2013-02-20 20:41:00,48.0,36.0,-100.00,NNE,28,2.0,4.0,62,-99.99,,,-99.99,0.000000,,2013-02-21 04:41:00,
2013-02-20 20:51:00,48.0,36.0,-100.00,NNE,28,2.0,4.0,62,-99.99,,,-99.99,0.000000,,2013-02-21 04:51:00,
2013-02-20 21:02:00,48.0,36.0,-100.00,East,86,0.0,2.0,63,-99.99,,,-99.99,0.000000,,2013-02-21 05:02:00,
2013-02-20 21:12:00,47.0,36.0,-100.00,South,183,1.0,3.0,64,-99.99,,,-99.99,0.000000,,2013-02-21 05:12:00,
2013-02-20 21:22:00,47.0,36.0,-100.00,ENE,57,1.0,4.0,67,-99.99,,,-99.99,0.000000,,2013-02-21 05:22:00,
2013-02-20 21:33:00,46.0,36.0,-100.00,NNW,345,1.0,3.0,67,-99.99,,,-99.99,0.000000,,2013-02-21 05:33:00,
2013-02-20 21:43:00,46.0,36.0,-100.00,North,8,0.0,2.0,67,-99.99,,,-99.99,0.000000,,2013-02-21 05:43:00,
2013-02-20 21:52:00,46.0,36.0,-100.00,North,8,0.0,2.0,67,-99.99,,,-99.99,0.000000,,2013-02-21 05:52:00,
2013-02-20 22:01:00,46.0,36.0,-100.00,NNE,26,0.0,2.0,67,-99.99,,,-99.99,0.000000,,2013-02-21 06:01:00,
2013-02-20 22:11:00,46.0,35.0,-100.00,ENE,73,1.0,3.0,67,-99.99,,,-99.99,0.000000,,2013-02-21 06:11:00,
2013-02-20 22:21:00,46.0,35.0,-100.00,ENE,73,1.0,3.0,67,-99.99,,,-99.99,0.000000,,2013-02-21 06:21:00,
2013-02-20 22:31:00,46.0,35.0,-100.00,North,11,1.0,4.0,66,-99.99,,,-99.99,0.000000,,2013-02-21 06:31:00,
2013-02-20 22:41:00,46.0,35.0,-100.00,NE,36,1.0,5.0,66,-99.99,,,-99.99,0.000000,,2013-02-21 06:41:00,
2013-02-20 22:51:00,46.0,35.0,-100.00,ENE,68,1.0,3.0,66,-99.99,,,-99.99,0.000000,,2013-02-21 06:51:00,
2013-02-20 23:01:00,45.0,35.0,-100.00,SSW,199,2.0,3.0,69,-99.99,,,-99.99,0.000000,,2013-02-21 07:01:00,
2013-02-20 23:11:00,45.0,35.0,-100.00,SSW,199,2.0,3.0,69,-99.99,,,-99.99,0.000000,,2013-02-21 07:11:00,
2013-02-20 23:21:00,45.0,35.0,-100.00,South,178,0.0,3.0,68,-99.99,,,-99.99,0.000000,,2013-02-21 07:21:00,
2013-02-20 23:31:00,45.0,35.0,-100.00,SSE,149,0.0,2.0,68,-99.99,,,-99.99,0.000000,,2013-02-21 07:31:00,
2013-02-20 23:42:00,45.0,35.0,-100.00,SSW,204,0.0,3.0,68,-99.99,,,-99.99,0.000000,,2013-02-21 07:42:00,
2013-02-20 23:52:00,45.0,35.0,-100.00,SSW,192,0.0,2.0,69,-99.99,,,-99.99,0.000000,,2013-02-21 07:52:00,